Time;durP1;ratioP1;P1;durP2;ratioP2;P2;SDS_P1;SDS_P2;PMS_P1;PMS_P2;Temp;Humidity;BMP_temperature;BMP_pressure;BME280_temperature;BME280_humidity;BME280_pressure;Samples;Min_cycle;Max_cycle;Signal;HPM_P1;HPM_P2
2021/05/05 00:00:29;;;;;;;11.73;2.40;;;;;;;;;;5031233;28;20684;-70
2021/05/05 00:03:13;;;;;;;4.80;2.10;;;;;;;;;;5031771;28;20205;-70
2021/05/05 00:06:02;;;;;;;5.40;2.07;;;;;;;;;;5031721;28;20233;-70
2021/05/05 00:08:48;;;;;;;7.57;2.40;;;;;;;;;;5031529;28;20202;-70
2021/05/05 00:11:33;;;;;;;4.57;2.10;;;;;;;;;;5031219;28;20229;-70
2021/05/05 00:14:18;;;;;;;5.03;2.13;;;;;;;;;;5031492;28;20232;-70
2021/05/05 00:17:04;;;;;;;6.27;2.33;;;;;;;;;;5031207;28;20217;-69
2021/05/05 00:19:49;;;;;;;5.60;2.50;;;;;;;;;;5030855;28;20210;-70
2021/05/05 00:22:36;;;;;;;6.93;2.75;;;;;;;;;;5029716;28;20481;-70
2021/05/05 00:25:23;;;;;;;5.90;2.90;;;;;;;;;;5031338;28;20569;-70
2021/05/05 00:28:08;;;;;;;7.30;2.60;;;;;;;;;;5031040;28;20208;-70
2021/05/05 00:30:52;;;;;;;6.97;2.67;;;;;;;;;;5030687;28;20206;-70
2021/05/05 00:33:38;;;;;;;6.07;2.77;;;;;;;;;;5031417;28;20608;-70
2021/05/05 00:36:22;;;;;;;7.47;3.15;;;;;;;;;;5029960;28;20422;-70
2021/05/05 00:39:07;;;;;;;6.60;2.60;;;;;;;;;;5031096;28;20224;-69
2021/05/05 00:41:51;;;;;;;6.63;2.77;;;;;;;;;;5031054;28;20294;-70
2021/05/05 00:44:38;;;;;;;7.53;2.83;;;;;;;;;;5030793;28;20201;-70
2021/05/05 00:47:23;;;;;;;5.83;2.77;;;;;;;;;;5030984;28;20232;-70
2021/05/05 00:50:10;;;;;;;5.87;2.73;;;;;;;;;;5030660;28;20209;-69
2021/05/05 00:52:55;;;;;;;7.27;3.13;;;;;;;;;;5030986;28;20201;-69
2021/05/05 00:55:41;;;;;;;6.50;3.50;;;;;;;;;;5030459;28;20241;-70
2021/05/05 00:58:26;;;;;;;6.50;3.63;;;;;;;;;;5030989;28;20257;-70
2021/05/05 01:01:10;;;;;;;6.80;3.83;;;;;;;;;;5030369;28;20253;-70
2021/05/05 01:03:55;;;;;;;5.23;3.43;;;;;;;;;;5030618;28;20245;-70
2021/05/05 01:06:41;;;;;;;5.37;3.80;;;;;;;;;;5030767;28;20226;-70
2021/05/05 01:09:26;;;;;;;8.53;3.30;;;;;;;;;;5030354;28;20289;-70
2021/05/05 01:12:11;;;;;;;8.03;2.97;;;;;;;;;;5030910;28;20205;-70
2021/05/05 01:14:55;;;;;;;7.53;3.10;;;;;;;;;;5030473;28;20248;-70
2021/05/05 01:17:40;;;;;;;7.77;3.00;;;;;;;;;;5030488;28;20280;-69
2021/05/05 01:20:27;;;;;;;7.70;2.90;;;;;;;;;;5030322;28;20583;-69
2021/05/05 01:23:14;;;;;;;5.93;2.90;;;;;;;;;;5030465;28;20768;-70
2021/05/05 01:25:59;;;;;;;6.53;3.03;;;;;;;;;;5029909;28;20451;-70
2021/05/05 01:28:45;;;;;;;7.93;3.63;;;;;;;;;;5030403;28;20248;-69
2021/05/05 01:31:29;;;;;;;5.00;2.80;;;;;;;;;;5030215;28;20204;-69
2021/05/05 01:34:14;;;;;;;6.00;2.63;;;;;;;;;;5030844;28;20228;-69
2021/05/05 01:36:59;;;;;;;5.73;2.40;;;;;;;;;;5030775;28;20262;-69
2021/05/05 01:39:45;;;;;;;6.67;2.30;;;;;;;;;;5030266;28;20260;-69
2021/05/05 01:42:38;;;;;;;4.70;2.10;;;;;;;;;;5034351;28;20251;-69
2021/05/05 01:45:32;;;;;;;6.37;2.67;;;;;;;;;;5034284;28;20212;-69
2021/05/05 01:48:19;;;;;;;6.40;2.30;;;;;;;;;;5034289;28;20268;-69
2021/05/05 01:51:04;;;;;;;9.73;3.20;;;;;;;;;;5033503;28;20200;-69
2021/05/05 01:53:49;;;;;;;9.10;2.80;;;;;;;;;;5034602;28;20609;-69
2021/05/05 01:56:35;;;;;;;6.50;2.80;;;;;;;;;;5034118;28;20392;-70
2021/05/05 01:59:20;;;;;;;9.13;2.93;;;;;;;;;;5033520;28;20201;-70
2021/05/05 02:02:05;;;;;;;10.02;3.58;;;;;;;;;;5033255;28;20897;-70
2021/05/05 02:04:49;;;;;;;5.53;3.00;;;;;;;;;;5034138;28;20554;-70
2021/05/05 02:07:34;;;;;;;9.07;3.23;;;;;;;;;;5033880;28;20250;-70
2021/05/05 02:10:19;;;;;;;13.77;3.43;;;;;;;;;;5033518;28;20555;-69
2021/05/05 02:13:07;;;;;;;7.90;2.80;;;;;;;;;;5033829;28;20543;-70
2021/05/05 02:15:52;;;;;;;9.63;3.67;;;;;;;;;;5033052;28;20446;-70
2021/05/05 02:18:36;;;;;;;8.97;3.43;;;;;;;;;;5033846;28;20202;-70
2021/05/05 02:21:22;;;;;;;6.80;2.70;;;;;;;;;;5033264;28;20216;-70
2021/05/05 02:24:07;;;;;;;10.23;3.43;;;;;;;;;;5033638;28;20203;-69
2021/05/05 02:26:54;;;;;;;8.97;3.40;;;;;;;;;;5033546;28;20319;-69
2021/05/05 02:29:43;;;;;;;7.97;3.00;;;;;;;;;;5033205;28;20208;-69
2021/05/05 02:32:27;;;;;;;9.70;3.87;;;;;;;;;;5033713;28;20205;-69
2021/05/05 02:35:13;;;;;;;14.70;6.40;;;;;;;;;;5033036;28;20221;-69
2021/05/05 02:37:58;;;;;;;13.77;5.23;;;;;;;;;;5033302;28;20319;-69
2021/05/05 02:40:43;;;;;;;10.53;3.73;;;;;;;;;;5032963;28;20223;-69
2021/05/05 02:43:28;;;;;;;9.40;3.20;;;;;;;;;;5033227;28;20243;-69
2021/05/05 02:46:20;;;;;;;8.00;3.50;;;;;;;;;;5033084;28;20236;-69
2021/05/05 02:49:06;;;;;;;12.20;5.07;;;;;;;;;;5033324;28;20218;-69
2021/05/05 02:51:50;;;;;;;9.77;5.82;;;;;;;;;;5032362;28;20929;-69
2021/05/05 02:54:35;;;;;;;8.73;4.57;;;;;;;;;;5033104;28;20223;-69
2021/05/05 02:57:26;;;;;;;14.60;4.83;;;;;;;;;;5033097;28;20219;-69
2021/05/05 03:00:14;;;;;;;8.50;4.97;;;;;;;;;;5032412;28;20205;-69
2021/05/05 03:03:00;;;;;;;10.40;4.50;;;;;;;;;;5032859;28;20211;-69
2021/05/05 03:05:47;;;;;;;13.17;5.43;;;;;;;;;;5031987;28;20412;-69
2021/05/05 03:08:31;;;;;;;10.00;4.77;;;;;;;;;;5032275;28;20203;-71
2021/05/05 03:11:16;;;;;;;8.90;5.57;;;;;;;;;;5031158;28;20244;-69
2021/05/05 03:14:01;;;;;;;12.13;5.70;;;;;;;;;;5032052;28;20200;-70
2021/05/05 03:16:45;;;;;;;14.57;5.57;;;;;;;;;;5032719;28;20258;-69
2021/05/05 03:19:33;;;;;;;11.77;5.97;;;;;;;;;;5032041;28;20199;-69
2021/05/05 03:22:19;;;;;;;11.00;5.90;;;;;;;;;;5032330;28;20215;-69
2021/05/05 03:25:04;;;;;;;11.20;5.80;;;;;;;;;;5032603;28;20227;-70
2021/05/05 03:27:49;;;;;;;14.77;6.00;;;;;;;;;;5030737;28;20211;-70
2021/05/05 03:30:34;;;;;;;11.87;5.53;;;;;;;;;;5031576;28;20204;-70
2021/05/05 03:33:18;;;;;;;11.23;5.97;;;;;;;;;;5032578;28;20595;-70
2021/05/05 03:36:04;;;;;;;11.43;6.10;;;;;;;;;;5031806;28;20255;-70
2021/05/05 03:38:48;;;;;;;13.20;6.40;;;;;;;;;;5031954;28;20204;-70
2021/05/05 03:41:33;;;;;;;13.65;8.27;;;;;;;;;;5030593;28;20976;-70
2021/05/05 03:44:17;;;;;;;13.77;7.10;;;;;;;;;;5032113;28;20676;-70
2021/05/05 03:47:03;;;;;;;12.00;6.53;;;;;;;;;;5031864;28;20215;-70
2021/05/05 03:49:49;;;;;;;13.07;6.67;;;;;;;;;;5031668;28;20284;-70
2021/05/05 03:52:38;;;;;;;15.80;6.83;;;;;;;;;;5032073;28;20222;-70
2021/05/05 03:55:22;;;;;;;17.30;7.35;;;;;;;;;;5030730;28;20438;-70
2021/05/05 03:58:07;;;;;;;13.97;5.60;;;;;;;;;;5032041;28;20200;-70
2021/05/05 04:00:53;;;;;;;12.37;4.93;;;;;;;;;;5031503;28;20245;-69
2021/05/05 04:03:38;;;;;;;10.67;4.50;;;;;;;;;;5031360;28;20206;-69
2021/05/05 04:06:22;;;;;;;14.87;5.33;;;;;;;;;;5031878;28;20278;-69
2021/05/05 04:09:09;;;;;;;11.53;5.37;;;;;;;;;;5031793;28;20202;-69
2021/05/05 04:11:53;;;;;;;12.30;6.40;;;;;;;;;;5031667;28;20251;-69
2021/05/05 04:14:39;;;;;;;10.93;7.20;;;;;;;;;;5031493;28;20223;-69
2021/05/05 04:17:24;;;;;;;12.67;7.33;;;;;;;;;;5031503;28;20279;-70
2021/05/05 04:20:12;;;;;;;18.23;8.93;;;;;;;;;;5030828;28;20219;-69
2021/05/05 04:22:57;;;;;;;16.83;8.77;;;;;;;;;;5031205;28;20218;-69
2021/05/05 04:25:44;;;;;;;15.27;8.30;;;;;;;;;;5031144;28;20223;-69
2021/05/05 04:28:29;;;;;;;14.17;8.10;;;;;;;;;;5030980;28;20196;-69
2021/05/05 04:31:13;;;;;;;14.93;7.47;;;;;;;;;;5030952;28;20586;-69
2021/05/05 04:33:58;;;;;;;10.40;4.60;;;;;;;;;;5031279;28;20229;-69
2021/05/05 04:36:43;;;;;;;8.87;4.33;;;;;;;;;;5030902;28;20247;-69
2021/05/05 04:39:28;;;;;;;9.70;4.90;;;;;;;;;;5030865;28;20212;-69
2021/05/05 04:42:13;;;;;;;11.70;4.87;;;;;;;;;;5031006;28;20261;-69
2021/05/05 04:45:03;;;;;;;11.27;4.20;;;;;;;;;;5029952;28;20236;-69
2021/05/05 04:47:47;;;;;;;8.97;4.03;;;;;;;;;;5010085;28;20677;-69
2021/05/05 04:50:35;;;;;;;7.73;4.13;;;;;;;;;;5009767;28;20659;-69
2021/05/05 04:53:23;;;;;;;10.10;4.03;;;;;;;;;;5011508;28;20200;-70
2021/05/05 04:56:07;;;;;;;10.43;4.00;;;;;;;;;;5011281;28;20278;-69
2021/05/05 04:58:53;;;;;;;6.97;3.50;;;;;;;;;;5011009;28;20233;-69
2021/05/05 05:01:37;;;;;;;9.90;4.37;;;;;;;;;;5010707;28;20255;-69
2021/05/05 05:04:23;;;;;;;8.93;3.80;;;;;;;;;;5011077;28;20263;-69
2021/05/05 05:07:15;;;;;;;8.53;4.30;;;;;;;;;;5011076;28;20240;-69
2021/05/05 05:10:02;;;;;;;9.27;3.80;;;;;;;;;;5010822;28;20215;-69
2021/05/05 05:12:46;;;;;;;6.93;3.83;;;;;;;;;;5010927;28;20688;-69
2021/05/05 05:15:32;;;;;;;9.50;4.40;;;;;;;;;;5012416;28;20243;-70
2021/05/05 05:18:16;;;;;;;7.97;4.17;;;;;;;;;;5016001;28;20596;-70
2021/05/05 05:21:01;;;;;;;11.38;4.65;;;;;;;;;;5030926;28;20526;-69
2021/05/05 05:23:48;;;;;;;5.37;3.83;;;;;;;;;;5033062;28;20401;-69
2021/05/05 05:26:33;;;;;;;5.50;3.13;;;;;;;;;;5034573;28;20579;-69
2021/05/05 05:29:17;;;;;;;7.10;3.17;;;;;;;;;;5034389;28;20212;-70
2021/05/05 05:32:02;;;;;;;8.13;3.40;;;;;;;;;;5034575;28;20227;-69
2021/05/05 05:34:52;;;;;;;6.18;3.50;;;;;;;;;;5033326;28;20940;-70
2021/05/05 05:37:37;;;;;;;5.57;3.17;;;;;;;;;;5034547;28;20213;-69
2021/05/05 05:40:21;;;;;;;5.80;2.70;;;;;;;;;;5034152;28;20204;-70
2021/05/05 05:43:06;;;;;;;4.30;2.90;;;;;;;;;;5034343;28;20263;-69
2021/05/05 05:45:59;;;;;;;4.70;2.50;;;;;;;;;;5034552;28;20248;-69
2021/05/05 05:48:45;;;;;;;7.43;3.60;;;;;;;;;;5034657;28;20696;-70
2021/05/05 05:51:29;;;;;;;4.37;2.87;;;;;;;;;;5033937;28;20289;-70
2021/05/05 05:54:14;;;;;;;5.13;3.07;;;;;;;;;;5033726;28;20605;-70
2021/05/05 05:56:58;;;;;;;6.83;3.43;;;;;;;;;;5034338;28;20212;-70
2021/05/05 05:59:45;;;;;;;8.47;3.53;;;;;;;;;;5033284;28;20209;-69
2021/05/05 06:02:29;;;;;;;6.13;3.13;;;;;;;;;;5025253;28;20657;-70
2021/05/05 06:05:15;;;;;;;5.30;3.03;;;;;;;;;;5032647;28;20234;-68
2021/05/05 06:07:59;;;;;;;5.30;2.70;;;;;;;;;;5032813;28;20243;-69
2021/05/05 06:10:44;;;;;;;5.07;2.73;;;;;;;;;;5033367;28;20212;-68
2021/05/05 06:13:29;;;;;;;7.30;2.67;;;;;;;;;;5033345;28;20233;-70
2021/05/05 06:16:14;;;;;;;6.03;3.07;;;;;;;;;;5033002;28;20772;-69
2021/05/05 06:18:59;;;;;;;6.33;2.73;;;;;;;;;;5033622;28;20224;-68
2021/05/05 06:21:45;;;;;;;6.17;3.00;;;;;;;;;;5032985;28;20260;-69
2021/05/05 06:24:30;;;;;;;6.18;3.50;;;;;;;;;;5032457;28;20462;-69
2021/05/05 06:27:15;;;;;;;5.10;2.63;;;;;;;;;;5032610;28;20210;-69
2021/05/05 06:30:00;;;;;;;5.80;2.80;;;;;;;;;;5032244;28;20210;-69
2021/05/05 06:32:46;;;;;;;7.67;2.80;;;;;;;;;;5033142;28;20202;-69
2021/05/05 06:35:33;;;;;;;6.93;3.00;;;;;;;;;;5032824;28;20791;-68
2021/05/05 06:38:19;;;;;;;6.70;2.77;;;;;;;;;;5033241;28;20569;-68
2021/05/05 06:41:03;;;;;;;7.47;3.00;;;;;;;;;;5032549;28;20538;-68
2021/05/05 06:43:48;;;;;;;7.53;2.80;;;;;;;;;;5032680;28;20261;-68
2021/05/05 06:46:33;;;;;;;6.00;3.00;;;;;;;;;;5022425;28;20739;-69
2021/05/05 06:49:18;;;;;;;5.97;2.33;;;;;;;;;;5032357;28;20233;-69
2021/05/05 06:52:03;;;;;;;6.80;2.67;;;;;;;;;;5032536;28;20205;-69
2021/05/05 06:54:48;;;;;;;6.33;3.17;;;;;;;;;;5032837;28;20280;-69
2021/05/05 06:57:38;;;;;;;6.77;2.70;;;;;;;;;;5032249;28;20286;-68
2021/05/05 07:00:23;;;;;;;7.40;2.67;;;;;;;;;;5031948;28;20248;-69
2021/05/05 07:03:07;;;;;;;8.17;2.97;;;;;;;;;;5032787;28;20240;-69
2021/05/05 07:05:53;;;;;;;7.80;3.10;;;;;;;;;;5032374;28;20221;-68
2021/05/05 07:08:38;;;;;;;6.20;3.13;;;;;;;;;;5033254;28;20249;-69
2021/05/05 07:11:26;;;;;;;6.83;2.90;;;;;;;;;;5031553;28;20202;-68
2021/05/05 07:14:10;;;;;;;7.67;2.97;;;;;;;;;;5031680;28;20252;-68
2021/05/05 07:16:55;;;;;;;5.43;2.83;;;;;;;;;;5021218;28;20198;-69
2021/05/05 07:19:41;;;;;;;5.87;2.83;;;;;;;;;;5031883;28;20285;-69
2021/05/05 07:22:26;;;;;;;7.33;3.07;;;;;;;;;;5032763;28;20566;-69
2021/05/05 07:25:18;;;;;;;5.33;2.40;;;;;;;;;;5032766;28;20253;-69
2021/05/05 07:28:05;;;;;;;7.87;2.83;;;;;;;;;;5032038;28;20214;-70
2021/05/05 07:30:57;;;;;;;6.07;2.97;;;;;;;;;;5031584;28;20292;-69
2021/05/05 07:33:42;;;;;;;6.57;2.67;;;;;;;;;;5031794;28;20621;-70
2021/05/05 07:36:28;;;;;;;7.80;2.90;;;;;;;;;;5031852;28;20265;-69
2021/05/05 07:48:36;;;;;;;8.77;3.20;;;;;;;;;;5021095;28;20266;-69
2021/05/05 07:51:21;;;;;;;5.40;2.70;;;;;;;;;;5031196;28;20682;-70
2021/05/05 07:54:06;;;;;;;6.10;3.10;;;;;;;;;;5031768;28;20240;-68
2021/05/05 07:56:50;;;;;;;9.98;3.20;;;;;;;;;;5031161;28;20477;-68
2021/05/05 07:59:38;;;;;;;7.07;2.73;;;;;;;;;;5031290;28;20628;-68
2021/05/05 08:02:24;;;;;;;6.77;2.57;;;;;;;;;;5029249;28;20694;-67
2021/05/05 08:05:09;;;;;;;5.60;2.73;;;;;;;;;;5031666;28;20233;-68
2021/05/05 08:07:54;;;;;;;5.00;2.10;;;;;;;;;;5031713;28;20530;-67
2021/05/05 08:10:38;;;;;;;4.87;1.80;;;;;;;;;;5031315;28;20669;-67
2021/05/05 08:13:32;;;;;;;4.77;1.57;;;;;;;;;;5031189;28;20613;-67
2021/05/05 08:16:20;;;;;;;3.73;1.80;;;;;;;;;;5030901;28;20733;-67
2021/05/05 08:19:08;;;;;;;4.03;1.80;;;;;;;;;;5030939;28;20313;-69
2021/05/05 08:21:52;;;;;;;4.97;2.00;;;;;;;;;;5048978;28;20204;-72
2021/05/05 08:24:40;;;;;;;5.53;2.00;;;;;;;;;;5029712;28;20229;-71
2021/05/05 08:27:25;;;;;;;5.97;2.63;;;;;;;;;;5030491;28;20231;-69
2021/05/05 08:30:11;;;;;;;3.13;2.20;;;;;;;;;;5029584;28;20207;-69
2021/05/05 08:32:56;;;;;;;4.40;2.07;;;;;;;;;;5031290;28;20606;-69
2021/05/05 08:35:41;;;;;;;3.60;2.30;;;;;;;;;;5031349;28;20662;-69
2021/05/05 08:38:29;;;;;;;3.20;1.40;;;;;;;;;;5031534;28;20641;-69
2021/05/05 08:41:18;;;;;;;5.07;1.90;;;;;;;;;;5030628;28;20247;-69
2021/05/05 08:44:03;;;;;;;3.47;1.90;;;;;;;;;;5030971;28;20245;-69
2021/05/05 08:46:48;;;;;;;3.83;1.97;;;;;;;;;;5031043;28;20218;-69
2021/05/05 08:49:32;;;;;;;7.43;2.70;;;;;;;;;;5030448;28;20201;-69
2021/05/05 08:52:18;;;;;;;6.13;2.73;;;;;;;;;;5031007;28;20230;-69
2021/05/05 08:55:03;;;;;;;6.73;2.93;;;;;;;;;;5030825;28;20310;-69
2021/05/05 08:57:48;;;;;;;7.90;2.97;;;;;;;;;;5030872;28;20306;-69
2021/05/05 09:00:35;;;;;;;6.53;2.93;;;;;;;;;;5030204;28;20217;-69
2021/05/05 09:03:28;;;;;;;7.77;2.90;;;;;;;;;;5030564;28;20638;-69
2021/05/05 09:06:15;;;;;;;7.33;2.83;;;;;;;;;;5030719;28;20271;-69
2021/05/05 09:09:02;;;;;;;6.30;2.87;;;;;;;;;;5030831;28;20210;-69
2021/05/05 09:11:46;;;;;;;6.53;2.70;;;;;;;;;;5030715;28;20939;-69
2021/05/05 09:14:31;;;;;;;10.17;3.40;;;;;;;;;;5030626;28;20218;-69
2021/05/05 09:17:16;;;;;;;6.80;3.23;;;;;;;;;;5030733;28;20776;-68
2021/05/05 09:20:15;;;;;;;9.60;3.80;;;;;;;;;;5028939;28;20462;-68
2021/05/05 09:23:00;;;;;;;8.50;3.67;;;;;;;;;;5029877;28;20284;-69
2021/05/05 09:25:50;;;;;;;10.00;3.60;;;;;;;;;;5030392;28;20711;-68
2021/05/05 09:28:35;;;;;;;11.37;3.23;;;;;;;;;;5030556;28;20736;-69
2021/05/05 09:31:23;;;;;;;9.03;2.60;;;;;;;;;;5030098;28;20209;-69
2021/05/05 09:34:10;;;;;;;8.73;3.38;;;;;;;;;;5030240;28;20418;-70
2021/05/05 09:36:56;;;;;;;8.23;2.60;;;;;;;;;;5030691;28;20300;-69
2021/05/05 09:39:40;;;;;;;7.73;2.70;;;;;;;;;;5030144;28;20551;-69
2021/05/05 09:42:27;;;;;;;4.30;2.10;;;;;;;;;;5030614;28;20237;-70
2021/05/05 09:45:12;;;;;;;6.13;1.93;;;;;;;;;;5030247;28;20226;-70
2021/05/05 09:47:57;;;;;;;4.07;1.80;;;;;;;;;;5030523;28;20201;-68
2021/05/05 09:50:45;;;;;;;5.07;2.30;;;;;;;;;;5029961;28;20221;-71
2021/05/05 09:53:31;;;;;;;5.67;1.93;;;;;;;;;;5030315;28;20202;-68
2021/05/05 09:56:16;;;;;;;5.73;2.37;;;;;;;;;;5030131;28;20229;-70
2021/05/05 09:59:04;;;;;;;5.07;2.00;;;;;;;;;;5029948;28;20210;-68
2021/05/05 10:02:01;;;;;;;7.80;2.23;;;;;;;;;;5032181;28;20195;-71
2021/05/05 10:05:11;;;;;;;4.13;2.10;;;;;;;;;;5033761;28;20573;-70
2021/05/05 10:07:56;;;;;;;6.75;2.45;;;;;;;;;;5032910;28;20739;-70
2021/05/05 10:10:42;;;;;;;4.03;1.83;;;;;;;;;;5033296;28;20215;-70
2021/05/05 10:13:32;;;;;;;5.67;2.17;;;;;;;;;;5033328;28;20226;-70
2021/05/05 10:16:18;;;;;;;5.83;2.03;;;;;;;;;;5033284;28;20218;-71
2021/05/05 10:19:03;;;;;;;7.17;2.30;;;;;;;;;;5033754;28;20672;-70
2021/05/05 10:21:51;;;;;;;7.05;2.67;;;;;;;;;;5033418;28;20449;-70
2021/05/05 10:24:40;;;;;;;7.20;2.60;;;;;;;;;;5033244;28;20761;-69
2021/05/05 10:27:25;;;;;;;7.00;2.30;;;;;;;;;;5031023;28;20210;-70
2021/05/05 10:30:10;;;;;;;4.90;2.07;;;;;;;;;;5032686;28;20252;-70
2021/05/05 10:32:56;;;;;;;6.77;2.53;;;;;;;;;;5032813;28;20221;-72
2021/05/05 10:35:40;;;;;;;8.67;3.00;;;;;;;;;;5030763;28;20300;-69
2021/05/05 10:38:32;;;;;;;6.73;2.87;;;;;;;;;;5033094;28;20209;-70
2021/05/05 10:41:16;;;;;;;7.97;2.63;;;;;;;;;;5013688;28;20210;-70
2021/05/05 10:44:02;;;;;;;9.83;2.90;;;;;;;;;;5021160;28;20368;-69
2021/05/05 10:47:09;;;;;;;8.97;3.70;;;;;;;;;;5033287;28;20565;-69
2021/05/05 10:50:15;;;;;;;9.20;3.03;;;;;;;;;;5032386;28;20238;-72
2021/05/05 10:53:07;;;;;;;5.70;2.50;;;;;;;;;;5032467;28;20278;-72
2021/05/05 10:55:54;;;;;;;6.67;2.87;;;;;;;;;;5032002;28;20226;-70
2021/05/05 10:58:56;;;;;;;9.80;3.50;;;;;;;;;;5031599;28;20605;-73
2021/05/05 11:01:42;;;;;;;7.50;2.67;;;;;;;;;;5030693;28;20245;-72
2021/05/05 11:04:47;;;;;;;9.43;2.93;;;;;;;;;;5033184;28;20225;-70
2021/05/05 11:07:48;;;;;;;7.83;2.70;;;;;;;;;;5031648;28;20249;-71
2021/05/05 11:10:50;;;;;;;6.33;2.63;;;;;;;;;;5047007;28;20200;-71
2021/05/05 11:13:41;;;;;;;10.32;3.45;;;;;;;;;;5035267;28;20545;-72
2021/05/05 11:16:46;;;;;;;9.93;3.10;;;;;;;;;;5044139;28;20249;-68
2021/05/05 11:19:47;;;;;;;6.67;2.77;;;;;;;;;;5030205;28;20242;-70
2021/05/05 11:22:42;;;;;;;8.40;3.03;;;;;;;;;;5043504;28;20272;-71
2021/05/05 11:25:29;;;;;;;9.40;3.40;;;;;;;;;;5041996;28;20585;-70
2021/05/05 11:28:34;;;;;;;9.77;3.13;;;;;;;;;;5042093;28;20201;-73
2021/05/05 11:31:37;;;;;;;11.70;3.70;;;;;;;;;;5028694;28;20253;-70
2021/05/05 11:34:32;;;;;;;11.37;3.70;;;;;;;;;;5031444;28;20227;-69
2021/05/05 11:37:19;;;;;;;11.27;3.27;;;;;;;;;;5037001;28;20233;-69
2021/05/05 11:40:04;;;;;;;11.23;3.90;;;;;;;;;;5048122;28;20193;-68
2021/05/05 11:42:49;;;;;;;10.23;3.70;;;;;;;;;;5031391;28;20206;-69
2021/05/05 11:45:33;;;;;;;11.27;3.80;;;;;;;;;;5041998;28;20418;-69
2021/05/05 11:48:28;;;;;;;11.10;3.30;;;;;;;;;;5032954;28;20447;-67
2021/05/05 11:51:20;;;;;;;8.30;3.47;;;;;;;;;;5030583;28;20210;-69
2021/05/05 11:54:12;;;;;;;6.17;2.23;;;;;;;;;;5048084;28;20229;-67
2021/05/05 11:57:03;;;;;;;6.27;2.67;;;;;;;;;;5040847;28;20315;-67
2021/05/05 11:59:50;;;;;;;8.90;2.83;;;;;;;;;;5029956;28;20240;-67
2021/05/05 12:02:42;;;;;;;9.80;3.42;;;;;;;;;;5028106;28;20946;-68
2021/05/05 12:05:28;;;;;;;9.10;2.87;;;;;;;;;;5029263;28;20269;-68
2021/05/05 12:08:15;;;;;;;10.17;2.90;;;;;;;;;;5030096;28;20723;-68
2021/05/05 12:11:01;;;;;;;11.17;3.37;;;;;;;;;;5039203;28;20216;-69
2021/05/05 12:13:46;;;;;;;11.87;3.47;;;;;;;;;;5048032;28;20241;-68
2021/05/05 12:16:35;;;;;;;7.80;3.27;;;;;;;;;;5029427;28;20334;-69
2021/05/05 12:19:20;;;;;;;9.70;3.17;;;;;;;;;;5031216;28;20296;-68
2021/05/05 12:22:13;;;;;;;12.63;3.90;;;;;;;;;;5031782;28;20211;-69
2021/05/05 12:25:12;;;;;;;9.93;3.20;;;;;;;;;;5029813;28;20225;-68
2021/05/05 12:28:00;;;;;;;9.93;3.80;;;;;;;;;;5034157;28;20720;-68
2021/05/05 12:30:49;;;;;;;10.73;3.70;;;;;;;;;;5039809;28;20206;-68
2021/05/05 12:33:35;;;;;;;8.00;2.97;;;;;;;;;;5029731;28;20231;-72
2021/05/05 12:36:21;;;;;;;7.37;3.10;;;;;;;;;;5034974;28;20587;-72
2021/05/05 12:39:10;;;;;;;10.53;3.20;;;;;;;;;;5036850;28;20689;-73
2021/05/05 12:41:55;;;;;;;9.47;3.43;;;;;;;;;;5040329;28;20290;-72
2021/05/05 12:44:41;;;;;;;10.57;3.60;;;;;;;;;;5029659;28;20221;-72
2021/05/05 12:47:29;;;;;;;10.23;3.53;;;;;;;;;;5029818;28;20376;-73
2021/05/05 12:50:17;;;;;;;7.93;3.00;;;;;;;;;;5033540;28;20278;-71
2021/05/05 12:53:04;;;;;;;9.13;3.23;;;;;;;;;;5029099;28;20680;-73
2021/05/05 12:55:55;;;;;;;10.83;3.43;;;;;;;;;;5029440;28;20217;-70
2021/05/05 12:58:40;;;;;;;10.77;3.50;;;;;;;;;;5029915;28;20692;-72
2021/05/05 13:01:28;;;;;;;7.13;2.43;;;;;;;;;;5035323;28;20287;-71
2021/05/05 13:04:18;;;;;;;6.87;2.47;;;;;;;;;;5047317;28;20263;-70
2021/05/05 13:07:03;;;;;;;10.23;3.00;;;;;;;;;;5036783;28;20252;-72
2021/05/05 13:10:01;;;;;;;6.77;2.67;;;;;;;;;;5035481;28;20205;-72
2021/05/05 13:12:58;;;;;;;7.50;2.77;;;;;;;;;;5047022;28;20201;-71
2021/05/05 13:16:05;;;;;;;5.50;2.50;;;;;;;;;;5050226;28;20268;-72
2021/05/05 13:19:12;;;;;;;6.00;2.50;;;;;;;;;;5050257;28;20576;-72
2021/05/05 13:31:31;;;;;;;13.50;3.33;;;;;;;;;;5029900;28;20260;-73
2021/05/05 13:34:17;;;;;;;9.63;4.93;;;;;;;;;;5030175;28;20590;-72
2021/05/05 13:37:02;;;;;;;9.20;3.60;;;;;;;;;;5031096;28;20430;-74
2021/05/05 13:39:46;;;;;;;9.70;3.20;;;;;;;;;;5033878;28;20623;-73
2021/05/05 13:42:33;;;;;;;10.80;2.97;;;;;;;;;;5033738;28;20332;-72
2021/05/05 13:45:19;;;;;;;9.37;3.27;;;;;;;;;;5033679;28;20227;-72
2021/05/05 13:48:23;;;;;;;8.13;3.20;;;;;;;;;;5034011;28;20257;-73
2021/05/05 13:51:09;;;;;;;8.87;3.10;;;;;;;;;;5033712;28;20294;-72
2021/05/05 13:53:54;;;;;;;11.70;3.80;;;;;;;;;;5033495;28;20214;-73
2021/05/05 13:56:39;;;;;;;10.17;3.27;;;;;;;;;;5033803;28;20725;-74
2021/05/05 13:59:23;;;;;;;11.17;3.70;;;;;;;;;;5033464;28;20281;-74
2021/05/05 14:02:09;;;;;;;8.77;2.97;;;;;;;;;;5033884;28;20243;-75
2021/05/05 14:04:54;;;;;;;10.40;3.00;;;;;;;;;;5033871;28;20619;-74
2021/05/05 14:07:41;;;;;;;8.27;3.03;;;;;;;;;;5033488;28;20249;-73
2021/05/05 14:10:25;;;;;;;9.03;3.67;;;;;;;;;;5032602;28;20489;-75
2021/05/05 14:13:09;;;;;;;9.90;3.63;;;;;;;;;;5033035;28;20254;-74
2021/05/05 14:15:55;;;;;;;10.73;3.00;;;;;;;;;;5021027;28;20218;-74
2021/05/05 14:18:40;;;;;;;9.27;3.20;;;;;;;;;;5033239;28;20272;-74
2021/05/05 14:21:25;;;;;;;7.00;3.07;;;;;;;;;;5032124;28;20206;-74
2021/05/05 14:24:14;;;;;;;7.50;3.13;;;;;;;;;;5031459;28;20456;-74
2021/05/05 14:26:59;;;;;;;9.00;2.87;;;;;;;;;;5033254;28;20743;-75
2021/05/05 14:29:44;;;;;;;8.40;2.97;;;;;;;;;;5033079;28;20241;-76
2021/05/05 14:32:28;;;;;;;7.33;2.80;;;;;;;;;;5033045;28;20286;-77
2021/05/05 14:35:14;;;;;;;8.27;2.27;;;;;;;;;;5033432;28;20202;-77
2021/05/05 14:38:04;;;;;;;6.53;2.60;;;;;;;;;;5033275;28;20210;-77
2021/05/05 14:40:52;;;;;;;6.40;2.37;;;;;;;;;;5031877;28;20195;-76
2021/05/05 14:43:45;;;;;;;6.87;2.40;;;;;;;;;;5032716;28;20230;-77
2021/05/05 14:49:33;;;;;;;5.80;2.60;;;;;;;;;;5032270;28;20238;-77
2021/05/05 14:52:19;;;;;;;6.03;2.30;;;;;;;;;;5033165;28;20700;-77
2021/05/05 14:55:09;;;;;;;8.47;2.70;;;;;;;;;;5032502;28;20221;-77
2021/05/05 14:57:59;;;;;;;5.93;2.30;;;;;;;;;;5032700;28;20748;-77
2021/05/05 15:00:46;;;;;;;7.23;2.50;;;;;;;;;;5032635;28;20553;-77
2021/05/05 15:03:34;;;;;;;7.90;2.77;;;;;;;;;;5032842;28;20853;-77
2021/05/05 15:06:24;;;;;;;6.60;2.40;;;;;;;;;;5032883;28;20571;-77
2021/05/05 15:12:25;;;;;;;9.73;3.55;;;;;;;;;;5031257;28;20422;-71
2021/05/05 15:34:04;;;;;;;8.30;2.70;;;;;;;;;;5019723;28;20249;-70
2021/05/05 15:36:52;;;;;;;5.90;2.33;;;;;;;;;;5031710;28;20227;-70
2021/05/05 15:39:38;;;;;;;6.53;2.30;;;;;;;;;;5031803;28;20213;-70
2021/05/05 15:42:25;;;;;;;4.63;2.17;;;;;;;;;;5031886;28;20199;-69
2021/05/05 15:45:12;;;;;;;5.20;2.35;;;;;;;;;;5030926;28;20472;-69
2021/05/05 15:47:58;;;;;;;6.03;2.50;;;;;;;;;;5032078;28;20252;-69
2021/05/05 15:50:42;;;;;;;5.17;2.33;;;;;;;;;;5031285;28;20237;-69
2021/05/05 15:53:29;;;;;;;4.50;2.43;;;;;;;;;;5030969;28;20244;-69
2021/05/05 15:56:14;;;;;;;6.30;2.23;;;;;;;;;;5038173;28;20235;-71
2021/05/05 15:59:02;;;;;;;7.28;2.83;;;;;;;;;;5050433;28;20442;-71
2021/05/05 16:01:57;;;;;;;7.20;2.37;;;;;;;;;;5051716;28;20198;-70
2021/05/05 16:04:59;;;;;;;7.40;2.60;;;;;;;;;;5051677;28;20226;-70
2021/05/05 16:14:12;;;;;;;8.30;2.57;;;;;;;;;;5031388;28;20775;-69
2021/05/05 16:16:57;;;;;;;5.93;2.30;;;;;;;;;;5034175;28;20321;-71
2021/05/05 16:19:49;;;;;;;5.47;2.60;;;;;;;;;;5049503;28;20243;-69
2021/05/05 16:22:38;;;;;;;7.73;2.30;;;;;;;;;;5027722;28;20210;-70
2021/05/05 16:25:27;;;;;;;5.60;2.40;;;;;;;;;;5031059;28;20201;-69
2021/05/05 16:28:24;;;;;;;8.67;2.60;;;;;;;;;;5031280;28;20225;-70
2021/05/05 16:43:36;;;;;;;6.93;2.60;;;;;;;;;;5030865;28;20209;-70
2021/05/05 16:46:49;;;;;;;8.10;2.97;;;;;;;;;;5031186;28;20206;-72
2021/05/05 16:49:58;;;;;;;6.57;2.27;;;;;;;;;;5030428;28;20202;-71
2021/05/05 16:53:16;;;;;;;7.57;3.13;;;;;;;;;;5030601;28;20225;-73
2021/05/05 16:59:32;;;;;;;5.60;2.50;;;;;;;;;;5030654;28;20227;-71
2021/05/05 17:05:59;;;;;;;7.97;2.80;;;;;;;;;;5030411;28;20264;-71
2021/05/05 17:08:58;;;;;;;9.40;3.03;;;;;;;;;;5030419;28;20213;-71
2021/05/05 17:11:45;;;;;;;7.07;2.53;;;;;;;;;;5030740;28;20340;-70
2021/05/05 17:14:34;;;;;;;7.60;2.63;;;;;;;;;;5030351;28;20306;-71
2021/05/05 17:17:21;;;;;;;5.83;2.80;;;;;;;;;;5030479;28;20288;-70
2021/05/05 17:20:12;;;;;;;6.40;2.67;;;;;;;;;;5030091;28;20565;-70
2021/05/05 17:23:02;;;;;;;5.73;2.57;;;;;;;;;;5030178;28;20271;-70
2021/05/05 17:25:55;;;;;;;7.70;2.63;;;;;;;;;;5010874;28;20728;-70
2021/05/05 17:28:55;;;;;;;5.37;2.70;;;;;;;;;;5010829;28;20207;-70
2021/05/05 17:44:07;;;;;;;10.23;3.13;;;;;;;;;;5023414;28;20252;-73
2021/05/05 18:11:32;;;;;;;7.50;2.90;;;;;;;;;;5029076;28;20256;-73
2021/05/05 18:17:26;;;;;;;4.70;2.80;;;;;;;;;;5030180;28;20268;-74
2021/05/05 18:20:14;;;;;;;9.10;3.27;;;;;;;;;;5029650;28;20210;-73
2021/05/05 18:23:04;;;;;;;9.43;3.40;;;;;;;;;;5031103;28;20407;-73
2021/05/05 18:31:54;;;;;;;7.23;2.70;;;;;;;;;;5031975;28;20198;-72
2021/05/05 18:34:42;;;;;;;9.17;3.07;;;;;;;;;;5029546;28;20252;-72
2021/05/05 18:37:27;;;;;;;7.40;3.13;;;;;;;;;;5033186;28;20229;-73